8A0

Albertville Regional-Thomas J Brumlik Field Airport

Albertville, Alabama, USA
METAR K8A0 210955Z AUTO 00000KT 10SM SCT036 BKN043 BKN070 23/23 A2990 RMK AO2
Observed Flight Rules
Jun-21 @ 09:55 UTC (21 minutes ago) Visual Flight Rules
Visibility Clouds
10 miles
  • Scattered at 3,600' AGL
  • Broken at 4,300' AGL
  • Broken at 7,000' AGL
Temperatures Readings
Current 23°C / 73°F
Dewpoint 23°C / 73°F
Humidity 100%
Altimeter 29.9" Hg
Pressure 1013 hPa
Elevation 315
METAR K8A0 210955Z AUTO 00000KT 10SM SCT036 BKN043 BKN070 23/23 A2990 RMK AO2
Observed Flight Rules
Jun-21 @ 09:55 UTC
(21 minutes ago)
VFR
Clouds
  • Scattered at 3,600' AGL
  • Broken at 4,300' AGL
  • Broken at 7,000' AGL
Temperature Dewpoint
23°C / 73°F 23°C / 73°F
Humidity Altimeter Pressure
100% 29.9" Hg 1013 hPa